Central, Arizona
Current Conditions -  °F | °C
As of 9:51 PM on Saturday 25 Oct 2014 (Local Time) from KSAD Reporting Station
Clear Clear  
Wind Chill: 69°   Ceiling: Unl
Heat Index: 69°   Visibility: 10mi
Dew Point: 49°   Wind: 6mph
Humidity: 49%   Direction: 150°SSE
Pressure: 30.06"   Gusts: NA
Location:  32.87°N, 109.79°W
Report Text: KSAD 260451Z AUTO 15005KT 10SM CLR 21/09 A3006 RMK AO2 SLP135 T02060094
Loading
Personal Weather Stations






























Interactive Weather Map
Tropical Storm Tracking
New forecast layout! Learn more

10-Day Weather Forecast

Advertisements
Track Severe Weather on mobile